createdAt,value
2023-03-11T00:00:59.895Z,4.33
2023-03-11T00:03:29.161Z,4.33
2023-03-11T00:08:17.054Z,4.34
2023-03-11T00:10:47.368Z,4.29
2023-03-11T00:13:17.972Z,4.28
2023-03-11T00:15:48.537Z,4.27
2023-03-11T00:18:17.161Z,4.26
2023-03-11T00:20:46.462Z,4.25
2023-03-11T00:23:14.839Z,4.23
2023-03-11T00:25:44.196Z,4.20
2023-03-11T00:28:13.393Z,4.19
2023-03-11T00:30:42.212Z,4.16
2023-03-11T00:33:13.034Z,4.13
2023-03-11T00:35:43.088Z,4.10
2023-03-11T00:38:14.018Z,4.05
2023-03-11T00:40:42.489Z,4.00
2023-03-11T00:43:11.172Z,3.96
2023-03-11T00:45:39.367Z,3.93
2023-03-11T00:48:08.144Z,3.90
2023-03-11T00:50:38.341Z,3.86
2023-03-11T00:53:07.771Z,3.83
2023-03-11T00:55:38.219Z,3.81
2023-03-11T00:58:10.565Z,3.79
2023-03-11T01:00:45.877Z,3.77
2023-03-11T01:03:14.474Z,3.74
2023-03-11T01:05:43.847Z,3.72
2023-03-11T01:08:13.246Z,3.68
2023-03-11T01:10:41.467Z,3.64
2023-03-11T01:13:11.229Z,3.61
2023-03-11T01:15:40.211Z,3.59
2023-03-11T01:18:08.572Z,3.58
2023-03-11T01:20:37.547Z,3.57
2023-03-11T01:23:06.495Z,3.55
2023-03-11T01:25:34.747Z,3.54
2023-03-11T01:28:03.363Z,3.53
2023-03-11T01:30:31.664Z,3.52
2023-03-11T01:32:59.908Z,3.50
2023-03-11T01:35:29.323Z,3.47
2023-03-11T01:37:58.261Z,3.45
2023-03-11T01:40:33.622Z,3.44
2023-03-11T01:43:07.498Z,3.42
2023-03-11T01:45:39.326Z,3.40
2023-03-11T01:48:08.925Z,3.40
2023-03-11T01:50:43.587Z,3.38
2023-03-11T01:53:11.743Z,3.36
2023-03-11T01:55:42.896Z,3.33
2023-03-11T01:58:14.155Z,3.31
2023-03-11T02:00:44.320Z,3.28
2023-03-11T02:03:24.526Z,3.28
2023-03-11T02:05:53.639Z,3.27
2023-03-11T02:08:22.182Z,3.25
2023-03-11T02:10:50.695Z,3.25
2023-03-11T02:13:19.145Z,3.24
2023-03-11T02:15:47.947Z,3.23
2023-03-11T02:18:20.430Z,3.23
2023-03-11T02:21:07.905Z,3.21
2023-03-11T02:23:50.031Z,3.22
2023-03-11T02:26:25.623Z,3.24
2023-03-11T02:28:56.727Z,3.26
2023-03-11T02:31:25.290Z,3.26
2023-03-11T02:33:54.685Z,3.26
2023-03-11T02:36:40.237Z,3.27
2023-03-11T02:39:10.466Z,3.27
2023-03-11T02:41:44.163Z,3.27
2023-03-11T02:44:14.004Z,3.27
2023-03-11T02:46:42.209Z,3.27
2023-03-11T02:49:12.249Z,3.28
2023-03-11T02:51:40.894Z,3.28
2023-03-11T02:54:12.257Z,3.29
2023-03-11T02:56:40.622Z,3.30
2023-03-11T02:59:12.559Z,3.31
2023-03-11T03:01:41.897Z,3.31
2023-03-11T03:04:10.369Z,3.31
2023-03-11T03:06:39.050Z,3.32
2023-03-11T03:09:07.364Z,3.33
2023-03-11T03:11:35.860Z,3.33
2023-03-11T03:14:04.202Z,3.32
2023-03-11T03:16:32.501Z,3.32
2023-03-11T03:19:00.773Z,3.31
2023-03-11T03:21:33.112Z,3.32
2023-03-11T03:24:01.455Z,3.32
2023-03-11T03:26:32.393Z,3.32
2023-03-11T03:29:00.899Z,3.31
2023-03-11T03:31:29.518Z,3.31
2023-03-11T03:33:58.483Z,3.30
2023-03-11T03:36:27.022Z,3.30
2023-03-11T03:38:59.827Z,3.30
2023-03-11T03:41:31.688Z,3.28
2023-03-11T03:44:00.504Z,3.28
2023-03-11T03:46:29.164Z,3.27
2023-03-11T03:48:59.469Z,3.26
2023-03-11T03:51:28.543Z,3.23
2023-03-11T03:54:07.273Z,3.20
2023-03-11T03:56:39.168Z,3.18
2023-03-11T03:59:07.904Z,3.15
2023-03-11T04:01:40.635Z,3.13
2023-03-11T04:04:09.385Z,3.10
2023-03-11T04:06:37.767Z,3.09
2023-03-11T04:09:07.729Z,3.07
2023-03-11T04:11:37.555Z,3.04
2023-03-11T04:14:07.870Z,3.02
2023-03-11T04:16:40.792Z,3.01
2023-03-11T04:19:12.812Z,2.98
2023-03-11T04:21:41.463Z,2.96
2023-03-11T04:24:09.805Z,2.95
2023-03-11T04:26:39.285Z,2.95
2023-03-11T04:29:10.108Z,2.94
2023-03-11T04:31:42.477Z,2.92
2023-03-11T04:34:12.168Z,2.89
2023-03-11T04:36:41.786Z,2.88
2023-03-11T04:39:10.628Z,2.87
2023-03-11T04:41:45.314Z,2.86
2023-03-11T04:44:16.995Z,2.87
2023-03-11T04:46:51.047Z,2.88
2023-03-11T04:49:19.371Z,2.88
2023-03-11T04:51:48.312Z,2.89
2023-03-11T04:54:17.303Z,2.89
2023-03-11T04:56:46.466Z,2.89
2023-03-11T04:59:17.689Z,2.91
2023-03-11T05:01:46.309Z,2.92
2023-03-11T05:04:14.745Z,2.93
2023-03-11T05:06:43.383Z,2.93
2023-03-11T05:09:12.294Z,2.95
2023-03-11T05:11:42.060Z,2.96
2023-03-11T05:14:11.207Z,2.98
2023-03-11T05:16:39.466Z,3.01
2023-03-11T05:19:27.684Z,3.05
2023-03-11T05:21:59.172Z,3.09
2023-03-11T05:24:27.845Z,3.14
2023-03-11T05:26:57.154Z,3.20
2023-03-11T05:29:26.394Z,3.27
2023-03-11T05:31:54.935Z,3.34
2023-03-11T05:34:23.908Z,3.40
2023-03-11T05:36:52.210Z,3.48
2023-03-11T05:39:20.701Z,3.56
2023-03-11T05:41:49.181Z,3.64
2023-03-11T05:44:17.382Z,3.74
2023-03-11T05:46:45.999Z,3.82
2023-03-11T05:49:14.210Z,3.89
2023-03-11T05:51:46.925Z,3.96
2023-03-11T05:54:17.451Z,4.04
2023-03-11T05:56:48.115Z,4.11
2023-03-11T05:59:17.798Z,4.18
2023-03-11T06:01:48.510Z,4.25
2023-03-11T06:04:18.515Z,4.29
2023-03-11T06:06:48.407Z,4.31
2023-03-11T06:09:18.919Z,4.34
2023-03-11T06:11:47.169Z,4.37
2023-03-11T06:14:16.001Z,4.41
2023-03-11T06:16:45.235Z,4.46
2023-03-11T06:19:22.707Z,4.50
2023-03-11T06:21:53.443Z,4.54
2023-03-11T06:24:21.599Z,4.58
2023-03-11T06:26:53.348Z,4.58
2023-03-11T06:29:24.554Z,4.59
2023-03-11T06:31:53.144Z,4.59
2023-03-11T06:34:21.504Z,4.60
2023-03-11T06:36:50.049Z,4.62
2023-03-11T06:39:18.418Z,4.65
2023-03-11T06:41:48.778Z,4.69
2023-03-11T06:44:18.027Z,4.71
2023-03-11T06:46:46.939Z,4.73
2023-03-11T06:49:15.618Z,4.77
2023-03-11T06:51:44.255Z,4.80
2023-03-11T06:54:13.054Z,4.84
2023-03-11T06:56:41.516Z,4.87
2023-03-11T06:59:10.462Z,4.94
2023-03-11T07:01:38.668Z,5.02
2023-03-11T07:04:09.773Z,5.12
2023-03-11T07:06:39.200Z,5.23
2023-03-11T07:09:11.333Z,5.34
2023-03-11T07:11:42.439Z,5.40
2023-03-11T07:14:14.421Z,5.43
2023-03-11T07:16:45.541Z,5.47
2023-03-11T07:19:38.523Z,5.53
2023-03-11T07:22:06.668Z,5.56
2023-03-11T07:24:38.166Z,5.58
2023-03-11T07:27:06.527Z,5.62
2023-03-11T07:29:34.698Z,5.65
2023-03-11T07:32:03.883Z,5.65
2023-03-11T07:34:32.885Z,5.65
2023-03-11T07:37:01.184Z,5.66
2023-03-11T07:39:29.961Z,5.66
2023-03-11T07:41:58.498Z,5.68
2023-03-11T07:44:37.908Z,5.68
2023-03-11T07:47:06.773Z,5.67
2023-03-11T07:49:35.977Z,5.66
2023-03-11T07:52:05.076Z,5.64
2023-03-11T07:54:33.269Z,5.63
2023-03-11T07:57:01.776Z,5.63
2023-03-11T07:59:29.958Z,5.62
2023-03-11T08:01:58.676Z,5.62
2023-03-11T08:04:26.884Z,5.64
2023-03-11T08:06:55.090Z,5.67
2023-03-11T08:09:23.415Z,5.71
2023-03-11T08:11:52.646Z,5.76
2023-03-11T08:14:20.800Z,5.83
2023-03-11T08:16:49.264Z,5.88
2023-03-11T08:19:17.661Z,5.94
2023-03-11T08:21:45.832Z,5.99
2023-03-11T08:24:15.875Z,6.03
2023-03-11T08:26:44.422Z,6.04
2023-03-11T08:29:16.970Z,6.04
2023-03-11T08:31:46.818Z,6.04
2023-03-11T08:34:17.135Z,6.05
2023-03-11T08:36:45.950Z,6.05
2023-03-11T08:39:14.304Z,6.05
2023-03-11T08:41:42.892Z,6.05
2023-03-11T08:44:11.142Z,6.06
2023-03-11T08:46:39.526Z,6.05
2023-03-11T08:49:10.995Z,6.03
2023-03-11T08:51:39.283Z,5.98
2023-03-11T08:54:10.089Z,5.91
2023-03-11T08:56:39.663Z,5.82
2023-03-11T08:59:08.692Z,5.73
2023-03-11T09:01:37.788Z,5.63
2023-03-11T09:04:05.949Z,5.47
2023-03-11T09:06:44.711Z,5.31
2023-03-11T09:09:13.959Z,5.21
2023-03-11T09:11:43.604Z,5.14
2023-03-11T09:14:15.514Z,5.10
2023-03-11T09:16:45.318Z,5.08
2023-03-11T09:19:13.491Z,5.05
2023-03-11T09:21:41.709Z,5.03
2023-03-11T09:24:10.139Z,5.01
2023-03-11T09:26:39.320Z,4.98
2023-03-11T09:29:08.706Z,4.95
2023-03-11T09:31:40.122Z,4.91
2023-03-11T09:34:08.789Z,4.88
2023-03-11T09:36:37.363Z,4.86
2023-03-11T09:39:05.559Z,4.84
2023-03-11T09:41:59.335Z,4.83
2023-03-11T09:44:37.554Z,4.81
2023-03-11T09:47:26.790Z,4.81
2023-03-11T09:50:18.338Z,4.81
2023-03-11T09:53:20.999Z,4.83
2023-03-11T09:56:01.575Z,4.83
2023-03-11T09:58:52.701Z,4.85
2023-03-11T10:01:56.696Z,4.86
2023-03-11T10:04:38.002Z,4.88
2023-03-11T10:07:11.492Z,4.90
2023-03-11T10:09:48.679Z,4.91
2023-03-11T10:12:23.762Z,4.92
2023-03-11T10:14:58.782Z,4.94
2023-03-11T10:17:48.686Z,4.95
2023-03-11T10:20:27.101Z,4.94
2023-03-11T10:23:29.358Z,4.92
2023-03-11T10:26:06.724Z,4.92
2023-03-11T10:28:56.850Z,4.92
2023-03-11T10:31:26.921Z,4.93
2023-03-11T10:34:29.061Z,4.95
2023-03-11T10:36:57.304Z,4.98
2023-03-11T10:39:25.744Z,4.99
2023-03-11T10:41:57.927Z,5.00
2023-03-11T10:44:29.867Z,5.00
2023-03-11T10:46:59.588Z,5.02
2023-03-11T10:49:28.106Z,5.03
2023-03-11T10:51:57.805Z,5.02
2023-03-11T10:54:38.593Z,5.03
2023-03-11T10:57:30.175Z,5.04
2023-03-11T11:00:00.190Z,5.05
2023-03-11T11:02:43.719Z,5.05
2023-03-11T11:05:18.186Z,5.08
2023-03-11T11:07:47.397Z,5.10
2023-03-11T11:10:21.541Z,5.10
2023-03-11T11:12:54.313Z,5.10
2023-03-11T11:15:26.327Z,5.11
2023-03-11T11:18:01.081Z,5.11
2023-03-11T11:20:31.475Z,5.12
2023-03-11T11:23:01.707Z,5.12
2023-03-11T11:25:38.065Z,5.13
2023-03-11T11:28:19.876Z,5.13
2023-03-11T11:30:57.193Z,5.16
2023-03-11T11:33:40.367Z,5.19
2023-03-11T11:36:13.642Z,5.22
2023-03-11T11:38:42.210Z,5.26
2023-03-11T11:41:15.219Z,5.29
2023-03-11T11:43:50.899Z,5.33
2023-03-11T11:46:31.555Z,5.37
2023-03-11T11:49:08.683Z,5.40
2023-03-11T11:52:00.053Z,5.43
2023-03-11T11:54:50.051Z,5.45
2023-03-11T11:57:19.897Z,5.49
2023-03-11T11:59:48.156Z,5.50
2023-03-11T12:02:16.574Z,5.50
2023-03-11T12:04:50.896Z,5.51
2023-03-11T12:07:51.766Z,5.54
2023-03-11T12:10:24.464Z,5.56
2023-03-11T12:13:05.969Z,5.58
2023-03-11T12:15:48.150Z,5.62
2023-03-11T12:18:37.664Z,5.65
2023-03-11T12:21:23.776Z,5.66
2023-03-11T12:24:26.239Z,5.68
2023-03-11T12:26:54.351Z,5.70
2023-03-11T12:29:31.738Z,5.74
2023-03-11T12:32:00.443Z,5.76
2023-03-11T12:34:29.239Z,5.77
2023-03-11T12:36:59.368Z,5.79
2023-03-11T12:39:31.922Z,5.82
2023-03-11T12:42:19.704Z,5.83
2023-03-11T12:44:49.038Z,5.84
2023-03-11T12:47:19.187Z,5.85
2023-03-11T12:49:49.563Z,5.87
2023-03-11T12:52:20.465Z,5.90
2023-03-11T12:54:49.913Z,5.92
2023-03-11T12:57:18.179Z,5.94
2023-03-11T13:00:12.585Z,5.96
2023-03-11T13:03:09.712Z,5.98
2023-03-11T13:06:15.564Z,6.01
2023-03-11T13:08:48.287Z,6.05
2023-03-11T13:11:31.754Z,6.08
2023-03-11T13:14:30.205Z,6.12
2023-03-11T13:17:27.403Z,6.17
2023-03-11T13:19:59.281Z,6.22
2023-03-11T13:22:43.845Z,6.27
2023-03-11T13:25:28.709Z,6.31
2023-03-11T13:28:32.096Z,6.33
2023-03-11T13:31:15.130Z,6.35
2023-03-11T13:33:50.003Z,6.38
2023-03-11T13:36:54.256Z,6.41
2023-03-11T13:39:33.445Z,6.43
2023-03-11T13:42:04.797Z,6.45
2023-03-11T13:44:37.171Z,6.48
2023-03-11T13:47:16.749Z,6.52
2023-03-11T13:49:59.882Z,6.54
2023-03-11T13:52:44.861Z,6.56
2023-03-11T13:55:19.620Z,6.60
2023-03-11T13:57:55.376Z,6.64
2023-03-11T14:00:25.342Z,6.67
2023-03-11T14:02:55.488Z,6.68
2023-03-11T14:05:28.060Z,6.70
2023-03-11T14:07:56.343Z,6.72
2023-03-11T14:10:29.602Z,6.75
2023-03-11T14:13:14.461Z,6.80
2023-03-11T14:16:04.788Z,6.83
2023-03-11T14:18:43.753Z,6.87
2023-03-11T14:21:14.223Z,6.90
2023-03-11T14:23:44.368Z,6.92
2023-03-11T14:26:23.988Z,6.95
2023-03-11T14:29:12.203Z,6.98
2023-03-11T14:31:41.878Z,7.00
2023-03-11T14:34:10.899Z,7.03
2023-03-11T14:36:46.012Z,7.05
2023-03-11T14:39:25.585Z,7.07
2023-03-11T14:42:18.953Z,7.10
2023-03-11T14:44:59.190Z,7.12
2023-03-11T14:47:46.290Z,7.15
2023-03-11T14:50:17.009Z,7.17
2023-03-11T14:53:24.181Z,7.18
2023-03-11T14:55:58.624Z,7.20
2023-03-11T14:58:26.833Z,7.21
2023-03-11T15:01:05.848Z,7.24
2023-03-11T15:03:36.055Z,7.27
2023-03-11T15:06:18.758Z,7.33
2023-03-11T15:08:52.072Z,7.36
2023-03-11T15:11:25.421Z,7.40
2023-03-11T15:13:54.076Z,7.40
2023-03-11T15:16:25.824Z,7.42
2023-03-11T15:18:54.867Z,7.46
2023-03-11T15:21:24.106Z,7.48
2023-03-11T15:23:55.873Z,7.52
2023-03-11T15:26:25.907Z,7.55
2023-03-11T15:28:58.929Z,7.58
2023-03-11T15:31:32.443Z,7.60
2023-03-11T15:34:10.382Z,7.63
2023-03-11T15:36:44.089Z,7.66
2023-03-11T15:39:18.364Z,7.67
2023-03-11T15:41:57.946Z,7.71
2023-03-11T15:44:41.835Z,7.73
2023-03-11T15:47:18.067Z,7.75
2023-03-11T15:49:46.681Z,7.78
2023-03-11T15:52:16.623Z,7.80
2023-03-11T15:54:54.670Z,7.83
2023-03-11T15:57:26.774Z,7.87
2023-03-11T15:59:56.243Z,7.90
2023-03-11T16:02:26.553Z,7.93
2023-03-11T16:04:54.841Z,7.95
2023-03-11T16:07:38.139Z,7.98
2023-03-11T16:10:08.745Z,8.01
2023-03-11T16:12:44.687Z,8.03
2023-03-11T16:15:36.003Z,8.06
2023-03-11T16:18:05.548Z,8.08
2023-03-11T16:20:45.100Z,8.10
2023-03-11T16:23:21.620Z,8.10
2023-03-11T16:25:49.783Z,8.12
2023-03-11T16:28:18.891Z,8.12
2023-03-11T16:30:47.501Z,8.13
2023-03-11T16:33:20.392Z,8.14
2023-03-11T16:35:48.900Z,8.15
2023-03-11T16:38:23.309Z,8.16
2023-03-11T16:41:01.765Z,8.18
2023-03-11T16:43:30.219Z,8.19
2023-03-11T16:45:59.110Z,8.19
2023-03-11T16:48:27.937Z,8.20
2023-03-11T16:50:56.090Z,8.21
2023-03-11T16:53:25.354Z,8.21
2023-03-11T16:55:54.366Z,8.22
2023-03-11T16:58:23.186Z,8.23
2023-03-11T17:00:52.290Z,8.25
2023-03-11T17:03:21.814Z,8.26
2023-03-11T17:05:51.439Z,8.28
2023-03-11T17:08:25.298Z,8.30
2023-03-11T17:10:53.818Z,8.31
2023-03-11T17:13:22.192Z,8.33
2023-03-11T17:16:01.142Z,8.33
2023-03-11T17:18:42.971Z,8.34
2023-03-11T17:21:13.388Z,8.35
2023-03-11T17:23:41.753Z,8.35
2023-03-11T17:26:15.139Z,8.35
2023-03-11T17:28:44.758Z,8.36
2023-03-11T17:31:14.214Z,8.37
2023-03-11T17:33:44.034Z,8.36
2023-03-11T17:36:14.420Z,8.34
2023-03-11T17:38:46.333Z,8.33
2023-03-11T17:41:15.914Z,8.33
2023-03-11T17:43:44.237Z,8.34
2023-03-11T17:46:17.408Z,8.33
2023-03-11T17:48:47.068Z,8.34
2023-03-11T17:51:20.132Z,8.36
2023-03-11T17:53:49.347Z,8.38
2023-03-11T17:56:21.925Z,8.40
2023-03-11T17:58:51.771Z,8.43
2023-03-11T18:01:22.464Z,8.44
2023-03-11T18:03:51.476Z,8.45
2023-03-11T18:06:20.004Z,8.46
2023-03-11T18:08:48.308Z,8.47
2023-03-11T18:11:20.684Z,8.49
2023-03-11T18:13:49.134Z,8.50
2023-03-11T18:16:28.988Z,8.51
2023-03-11T18:18:57.300Z,8.52
2023-03-11T18:21:27.866Z,8.53
2023-03-11T18:23:59.966Z,8.55
2023-03-11T18:26:29.068Z,8.57
2023-03-11T18:28:58.935Z,8.57
2023-03-11T18:31:28.126Z,8.55
2023-03-11T18:34:00.018Z,8.54
2023-03-11T18:36:33.033Z,8.55
2023-03-11T18:39:05.965Z,8.55
2023-03-11T18:41:35.289Z,8.57
2023-03-11T18:44:09.846Z,8.58
2023-03-11T18:46:41.610Z,8.57
2023-03-11T18:49:11.827Z,8.57
2023-03-11T18:51:41.194Z,8.58
2023-03-11T18:54:10.367Z,8.59
2023-03-11T18:56:38.533Z,8.60
2023-03-11T18:59:08.750Z,8.60
2023-03-11T19:01:36.941Z,8.61
2023-03-11T19:04:05.274Z,8.61
2023-03-11T19:06:33.861Z,8.61
2023-03-11T19:09:02.357Z,8.61
2023-03-11T19:11:30.756Z,8.62
2023-03-11T19:14:00.133Z,8.63
2023-03-11T19:16:28.432Z,8.62
2023-03-11T19:18:56.583Z,8.61
2023-03-11T19:21:26.054Z,8.60
2023-03-11T19:23:55.457Z,8.60
2023-03-11T19:26:41.443Z,8.58
2023-03-11T19:29:12.182Z,8.56
2023-03-11T19:31:40.552Z,8.54
2023-03-11T19:34:08.704Z,8.55
2023-03-11T19:36:36.885Z,8.56
2023-03-11T19:39:05.495Z,8.55
2023-03-11T19:41:33.698Z,8.53
2023-03-11T19:44:05.903Z,8.52
2023-03-11T19:46:36.472Z,8.51
2023-03-11T19:49:04.957Z,8.49
2023-03-11T19:51:48.598Z,8.47
2023-03-11T19:54:18.667Z,8.46
2023-03-11T19:56:50.412Z,8.46
2023-03-11T19:59:19.305Z,8.42
2023-03-11T20:01:47.535Z,8.39
2023-03-11T20:04:16.605Z,8.38
2023-03-11T20:06:45.478Z,8.36
2023-03-11T20:09:15.951Z,8.35
2023-03-11T20:11:45.893Z,8.34
2023-03-11T20:14:16.091Z,8.33
2023-03-11T20:16:44.496Z,8.33
2023-03-11T20:19:13.762Z,8.33
2023-03-11T20:21:44.581Z,8.33
2023-03-11T20:24:13.908Z,8.31
2023-03-11T20:26:43.363Z,8.28
2023-03-11T20:29:11.783Z,8.22
2023-03-11T20:31:39.946Z,8.18
2023-03-11T20:34:08.176Z,8.16
2023-03-11T20:36:36.537Z,8.13
2023-03-11T20:39:06.434Z,8.10
2023-03-11T20:41:40.348Z,8.07
2023-03-11T20:44:09.131Z,8.05
2023-03-11T20:46:41.823Z,8.03
2023-03-11T20:49:11.310Z,8.01
2023-03-11T20:51:42.066Z,7.98
2023-03-11T20:54:17.158Z,7.96
2023-03-11T20:56:45.445Z,7.93
2023-03-11T20:59:14.198Z,7.91
2023-03-11T21:01:42.598Z,7.88
2023-03-11T21:04:11.429Z,7.85
2023-03-11T21:06:41.202Z,7.83
2023-03-11T21:09:13.556Z,7.81
2023-03-11T21:11:42.497Z,7.80
2023-03-11T21:14:10.915Z,7.79
2023-03-11T21:16:43.251Z,7.78
2023-03-11T21:19:13.616Z,7.77
2023-03-11T21:21:41.985Z,7.76
2023-03-11T21:24:11.338Z,7.75
2023-03-11T21:26:41.809Z,7.75
2023-03-11T21:29:10.789Z,7.74
2023-03-11T21:31:39.131Z,7.73
2023-03-11T21:34:09.272Z,7.71
2023-03-11T21:36:38.048Z,7.70
2023-03-11T21:39:07.053Z,7.68
2023-03-11T21:41:35.260Z,7.66
2023-03-11T21:44:08.153Z,7.66
2023-03-11T21:46:37.302Z,7.65
2023-03-11T21:49:06.110Z,7.64
2023-03-11T21:51:35.724Z,7.63
2023-03-11T21:54:05.449Z,7.62
2023-03-11T21:56:35.158Z,7.60
2023-03-11T21:59:03.986Z,7.59
2023-03-11T22:01:35.365Z,7.58
2023-03-11T22:04:03.947Z,7.58
2023-03-11T22:06:33.576Z,7.57
2023-03-11T22:09:02.279Z,7.58
2023-03-11T22:11:32.529Z,7.58
2023-03-11T22:14:01.166Z,7.57
2023-03-11T22:16:29.869Z,7.57
2023-03-11T22:18:58.821Z,7.56
2023-03-11T22:21:27.083Z,7.55
2023-03-11T22:23:55.213Z,7.54
2023-03-11T22:26:24.430Z,7.54
2023-03-11T22:28:52.903Z,7.54
2023-03-11T22:31:20.989Z,7.52
2023-03-11T22:33:49.885Z,7.51
2023-03-11T22:36:18.174Z,7.50
2023-03-11T22:38:46.454Z,7.49
2023-03-11T22:41:19.456Z,7.48
2023-03-11T22:43:47.567Z,7.46
2023-03-11T22:46:15.873Z,7.45
2023-03-11T22:48:44.398Z,7.41
2023-03-11T22:51:15.134Z,7.39
2023-03-11T22:53:43.874Z,7.37
2023-03-11T22:56:13.654Z,7.34
2023-03-11T22:58:42.088Z,7.31
2023-03-11T23:01:10.995Z,7.29
2023-03-11T23:03:39.498Z,7.27
2023-03-11T23:06:08.518Z,7.24
2023-03-11T23:08:37.002Z,7.22
2023-03-11T23:11:08.264Z,7.19
2023-03-11T23:13:37.674Z,7.14
2023-03-11T23:16:10.629Z,7.07
2023-03-11T23:18:39.062Z,6.98
2023-03-11T23:21:20.058Z,6.91
2023-03-11T23:23:48.466Z,6.83
2023-03-11T23:26:16.762Z,6.76
2023-03-11T23:28:45.566Z,6.70
2023-03-11T23:31:15.352Z,6.63
2023-03-11T23:33:44.598Z,6.56
2023-03-11T23:36:15.627Z,6.49
2023-03-11T23:38:47.356Z,6.44
2023-03-11T23:41:17.370Z,6.38
2023-03-11T23:43:45.584Z,6.34
2023-03-11T23:46:15.377Z,6.30
2023-03-11T23:48:43.897Z,6.26
2023-03-11T23:51:14.783Z,6.23
2023-03-11T23:53:43.068Z,6.20
2023-03-11T23:56:14.433Z,6.19
2023-03-11T23:58:43.307Z,6.17
